createdAt,value
2022-07-26T00:00:29.497Z,99.90
2022-07-26T00:02:56.429Z,99.90
2022-07-26T00:05:23.339Z,99.90
2022-07-26T00:07:51.148Z,99.90
2022-07-26T00:10:17.952Z,99.90
2022-07-26T00:12:44.740Z,99.90
2022-07-26T00:15:12.009Z,99.90
2022-07-26T00:17:39.615Z,99.90
2022-07-26T00:20:07.286Z,99.90
2022-07-26T00:22:34.234Z,99.90
2022-07-26T00:25:06.204Z,99.90
2022-07-26T00:27:36.988Z,99.90
2022-07-26T00:30:08.745Z,99.90
2022-07-26T00:32:36.268Z,99.90
2022-07-26T00:35:03.701Z,99.90
2022-07-26T00:37:30.612Z,99.90
2022-07-26T00:39:57.390Z,99.90
2022-07-26T00:42:24.220Z,99.90
2022-07-26T00:44:52.798Z,99.90
2022-07-26T00:47:20.664Z,99.90
2022-07-26T00:49:47.594Z,99.90
2022-07-26T00:52:14.491Z,99.90
2022-07-26T00:54:46.625Z,99.90
2022-07-26T00:57:14.940Z,99.90
2022-07-26T00:59:42.132Z,99.90
2022-07-26T01:02:10.630Z,99.90
2022-07-26T01:04:37.550Z,99.90
2022-07-26T01:07:14.833Z,99.90
2022-07-26T01:09:43.401Z,99.90
2022-07-26T01:12:10.356Z,99.90
2022-07-26T01:14:37.498Z,99.90
2022-07-26T01:17:04.414Z,99.90
2022-07-26T01:19:31.263Z,99.90
2022-07-26T01:21:58.454Z,99.90
2022-07-26T01:24:25.247Z,99.90
2022-07-26T01:26:52.051Z,99.90
2022-07-26T01:29:18.854Z,99.90
2022-07-26T01:31:45.681Z,99.90
2022-07-26T01:34:12.583Z,99.90
2022-07-26T01:36:39.712Z,99.90
2022-07-26T01:39:07.034Z,99.90
2022-07-26T01:41:37.755Z,99.90
2022-07-26T01:44:07.565Z,99.90
2022-07-26T01:46:35.473Z,99.90
2022-07-26T01:49:02.715Z,99.90
2022-07-26T01:51:29.533Z,99.90
2022-07-26T01:53:56.620Z,99.90
2022-07-26T01:56:23.426Z,99.90
2022-07-26T01:58:50.371Z,99.90
2022-07-26T02:01:37.967Z,99.90
2022-07-26T02:04:04.512Z,99.90
2022-07-26T02:06:31.631Z,99.90
2022-07-26T02:08:58.623Z,99.90
2022-07-26T02:11:26.270Z,99.90
2022-07-26T02:13:53.443Z,99.90
2022-07-26T02:16:20.419Z,99.90
2022-07-26T02:18:47.315Z,99.90
2022-07-26T02:21:14.172Z,99.90
2022-07-26T02:23:41.850Z,99.90
2022-07-26T02:26:14.695Z,99.90
2022-07-26T02:28:41.803Z,99.90
2022-07-26T02:31:08.698Z,99.90
2022-07-26T02:33:35.570Z,99.90
2022-07-26T02:36:02.445Z,99.90
2022-07-26T02:38:29.272Z,99.90
2022-07-26T02:40:56.039Z,99.90
2022-07-26T02:43:22.916Z,99.90
2022-07-26T02:46:01.605Z,99.90
2022-07-26T02:48:32.399Z,99.90
2022-07-26T02:50:59.603Z,99.90
2022-07-26T02:53:26.454Z,99.90
2022-07-26T02:55:53.290Z,99.90
2022-07-26T02:58:24.992Z,99.90
2022-07-26T03:00:51.809Z,99.90
2022-07-26T03:03:18.618Z,99.90
2022-07-26T03:05:45.678Z,99.90
2022-07-26T03:08:12.581Z,99.90
2022-07-26T03:10:40.102Z,99.90
2022-07-26T03:13:07.246Z,99.90
2022-07-26T03:15:34.132Z,99.90
2022-07-26T03:18:01.234Z,99.90
2022-07-26T03:20:28.117Z,99.90
2022-07-26T03:22:55.067Z,99.90
2022-07-26T03:25:21.994Z,99.90
2022-07-26T03:27:48.783Z,99.90
2022-07-26T03:30:15.794Z,99.90
2022-07-26T03:32:42.566Z,99.90
2022-07-26T03:35:09.539Z,99.90
2022-07-26T03:37:45.569Z,99.90
2022-07-26T03:40:15.021Z,99.90
2022-07-26T03:42:43.822Z,99.90
2022-07-26T03:45:11.461Z,99.90
2022-07-26T03:47:38.659Z,99.90
2022-07-26T03:50:06.926Z,99.90
2022-07-26T03:52:34.570Z,99.90
2022-07-26T03:55:21.379Z,99.90
2022-07-26T03:57:48.309Z,99.90
2022-07-26T04:00:15.257Z,99.90
2022-07-26T04:02:42.174Z,99.90
2022-07-26T04:05:09.547Z,99.90
2022-07-26T04:07:42.922Z,99.90
2022-07-26T04:10:10.533Z,99.90
2022-07-26T04:12:37.391Z,99.90
2022-07-26T04:15:05.740Z,99.90
2022-07-26T04:17:40.045Z,99.90
2022-07-26T04:20:08.409Z,99.90
2022-07-26T04:22:36.459Z,99.90
2022-07-26T04:25:05.514Z,99.90
2022-07-26T04:27:32.560Z,99.90
2022-07-26T04:29:59.606Z,99.90
2022-07-26T04:32:26.862Z,99.90
2022-07-26T04:34:53.837Z,99.90
2022-07-26T04:37:20.643Z,99.90
2022-07-26T04:39:51.646Z,99.90
2022-07-26T04:42:21.408Z,99.90
2022-07-26T04:44:48.232Z,99.90
2022-07-26T04:47:15.066Z,99.90
2022-07-26T04:49:41.853Z,99.90
2022-07-26T04:52:08.664Z,99.90
2022-07-26T04:54:35.515Z,99.90
2022-07-26T04:57:05.708Z,99.90
2022-07-26T04:59:33.970Z,99.90
2022-07-26T05:02:00.805Z,99.90
2022-07-26T05:04:27.653Z,99.90
2022-07-26T05:06:54.474Z,99.90
2022-07-26T05:09:21.276Z,99.90
2022-07-26T05:11:48.165Z,99.90
2022-07-26T05:14:15.933Z,99.90
2022-07-26T05:16:44.406Z,99.90
2022-07-26T05:19:12.284Z,99.90
2022-07-26T05:21:39.120Z,99.90
2022-07-26T05:24:07.714Z,99.90
2022-07-26T05:26:35.134Z,99.90
2022-07-26T05:29:02.228Z,99.90
2022-07-26T05:31:29.135Z,99.90
2022-07-26T05:33:56.010Z,99.90
2022-07-26T05:36:22.846Z,99.90
2022-07-26T05:38:49.637Z,99.90
2022-07-26T05:41:16.863Z,99.90
2022-07-26T05:43:43.645Z,99.90
2022-07-26T05:46:12.130Z,99.90
2022-07-26T05:48:40.197Z,99.90
2022-07-26T05:51:07.159Z,99.90
2022-07-26T05:53:34.222Z,99.90
2022-07-26T05:56:01.046Z,99.90
2022-07-26T05:58:28.842Z,99.90
2022-07-26T06:00:55.603Z,99.90
2022-07-26T06:03:22.363Z,99.90
2022-07-26T06:05:51.389Z,99.90
2022-07-26T06:08:19.042Z,99.90
2022-07-26T06:10:46.880Z,99.90
2022-07-26T06:13:13.887Z,99.90
2022-07-26T06:15:42.982Z,99.90
2022-07-26T06:18:10.315Z,99.90
2022-07-26T06:20:43.040Z,99.90
2022-07-26T06:23:10.332Z,99.90
2022-07-26T06:25:37.409Z,99.90
2022-07-26T06:28:05.317Z,99.90
2022-07-26T06:30:32.451Z,99.90
2022-07-26T06:33:00.432Z,99.90
2022-07-26T06:35:30.991Z,99.90
2022-07-26T06:38:00.668Z,99.90
2022-07-26T06:40:27.800Z,99.90
2022-07-26T06:42:54.642Z,99.90
2022-07-26T06:45:22.053Z,99.90
2022-07-26T06:47:48.870Z,99.90
2022-07-26T06:50:15.695Z,99.90
2022-07-26T06:52:47.895Z,99.90
2022-07-26T06:55:14.930Z,99.90
2022-07-26T06:57:45.072Z,99.90
2022-07-26T07:00:17.559Z,99.90
2022-07-26T07:02:44.386Z,99.90
2022-07-26T07:05:12.051Z,99.90
2022-07-26T07:07:42.193Z,99.90
2022-07-26T07:10:10.205Z,99.90
2022-07-26T07:12:38.196Z,99.90
2022-07-26T07:15:05.489Z,99.90
2022-07-26T07:17:32.477Z,99.90
2022-07-26T07:20:00.558Z,99.90
2022-07-26T07:22:27.361Z,99.90
2022-07-26T07:24:54.168Z,99.90
2022-07-26T07:27:21.260Z,99.90
2022-07-26T07:29:48.196Z,99.90
2022-07-26T07:32:18.123Z,99.90
2022-07-26T07:34:48.282Z,99.90
2022-07-26T07:37:16.307Z,99.90
2022-07-26T07:39:44.326Z,99.90
2022-07-26T07:42:17.132Z,99.90
2022-07-26T07:44:45.103Z,99.90
2022-07-26T07:47:12.136Z,99.90
2022-07-26T07:49:39.054Z,99.90
2022-07-26T07:52:06.907Z,99.90
2022-07-26T07:54:33.806Z,99.90
2022-07-26T07:57:00.589Z,99.90
2022-07-26T07:59:27.451Z,99.90
2022-07-26T08:01:56.774Z,99.90
2022-07-26T08:04:24.954Z,99.90
2022-07-26T08:06:51.755Z,99.90
2022-07-26T08:09:19.502Z,99.90
2022-07-26T08:11:50.888Z,99.90
2022-07-26T08:14:18.788Z,99.90
2022-07-26T08:16:45.776Z,99.90
2022-07-26T08:19:13.143Z,99.90
2022-07-26T08:21:43.003Z,99.90
2022-07-26T08:24:10.848Z,99.90
2022-07-26T08:26:38.180Z,99.90
2022-07-26T08:29:05.326Z,99.90
2022-07-26T08:31:32.175Z,99.90
2022-07-26T08:33:58.994Z,99.90
2022-07-26T08:36:31.870Z,98.90
2022-07-26T08:39:00.570Z,98.20
2022-07-26T08:41:27.460Z,97.00
2022-07-26T08:43:55.501Z,94.90
2022-07-26T08:46:27.018Z,93.70
2022-07-26T08:48:57.428Z,93.50
2022-07-26T08:51:25.860Z,91.00
2022-07-26T08:54:05.760Z,90.40
2022-07-26T08:56:35.269Z,88.40
2022-07-26T08:59:17.092Z,90.80
2022-07-26T09:02:01.744Z,84.40
2022-07-26T09:04:33.218Z,82.40
2022-07-26T09:07:11.053Z,86.20
2022-07-26T09:10:00.496Z,81.80
2022-07-26T09:12:29.415Z,80.60
2022-07-26T09:14:57.301Z,81.50
2022-07-26T09:17:25.793Z,78.40
2022-07-26T09:20:04.648Z,77.70
2022-07-26T09:22:32.481Z,78.30
2022-07-26T09:24:59.520Z,76.30
2022-07-26T09:27:36.338Z,80.50
2022-07-26T09:30:08.615Z,79.30
2022-07-26T09:32:37.395Z,84.10
2022-07-26T09:35:44.116Z,80.10
2022-07-26T09:37:58.844Z,81.10
2022-07-26T09:40:33.794Z,81.60
2022-07-26T09:43:05.601Z,79.50
2022-07-26T09:45:35.259Z,76.50
2022-07-26T09:48:04.334Z,79.90
2022-07-26T09:50:33.463Z,81.40
2022-07-26T09:53:11.349Z,82.10
2022-07-26T09:55:45.016Z,83.60
2022-07-26T09:58:14.172Z,81.00
2022-07-26T10:00:42.124Z,82.50
2022-07-26T10:03:09.433Z,86.00
2022-07-26T10:05:36.901Z,84.20
2022-07-26T10:08:04.835Z,83.10
2022-07-26T10:10:45.266Z,80.90
2022-07-26T10:13:12.996Z,81.90
2022-07-26T10:15:46.877Z,81.00
2022-07-26T10:18:39.182Z,84.50
2022-07-26T10:21:25.115Z,80.70
2022-07-26T10:23:56.629Z,73.40
2022-07-26T10:26:32.349Z,71.10
2022-07-26T10:29:17.188Z,71.80
2022-07-26T10:31:48.089Z,74.10
2022-07-26T10:34:35.585Z,77.30
2022-07-26T10:37:05.300Z,72.60
2022-07-26T10:39:32.342Z,73.70
2022-07-26T10:42:01.833Z,68.10
2022-07-26T10:44:34.349Z,70.00
2022-07-26T10:47:02.977Z,65.70
2022-07-26T10:49:37.424Z,69.60
2022-07-26T10:52:20.114Z,65.40
2022-07-26T10:55:03.532Z,66.30
2022-07-26T10:57:38.599Z,60.70
2022-07-26T11:00:11.750Z,58.50
2022-07-26T11:02:38.923Z,62.60
2022-07-26T11:05:14.760Z,60.90
2022-07-26T11:08:11.070Z,59.40
2022-07-26T11:10:41.955Z,57.30
2022-07-26T11:13:13.074Z,57.20
2022-07-26T11:15:52.217Z,57.30
2022-07-26T11:18:24.904Z,57.60
2022-07-26T11:20:54.636Z,59.50
2022-07-26T11:23:27.213Z,61.20
2022-07-26T11:26:13.619Z,58.70
2022-07-26T11:28:52.901Z,59.30
2022-07-26T11:31:23.655Z,57.50
2022-07-26T11:34:22.118Z,58.00
2022-07-26T11:36:51.293Z,58.60
2022-07-26T11:39:23.873Z,57.90
2022-07-26T11:41:56.517Z,56.70
2022-07-26T11:44:24.459Z,56.70
2022-07-26T11:46:51.647Z,54.10
2022-07-26T11:49:25.083Z,55.60
2022-07-26T11:51:59.285Z,55.10
2022-07-26T11:54:28.952Z,55.00
2022-07-26T11:57:04.069Z,58.50
2022-07-26T11:59:34.061Z,59.40
2022-07-26T12:02:02.517Z,60.30
2022-07-26T12:04:32.535Z,60.30
2022-07-26T12:07:01.014Z,65.80
2022-07-26T12:09:36.898Z,64.10
2022-07-26T12:12:09.595Z,57.00
2022-07-26T12:14:38.282Z,58.00
2022-07-26T12:17:17.098Z,56.20
2022-07-26T12:19:45.195Z,58.10
2022-07-26T12:22:17.230Z,57.00
2022-07-26T12:24:51.983Z,58.30
2022-07-26T12:27:30.587Z,58.30
2022-07-26T12:30:16.112Z,56.30
2022-07-26T12:32:44.831Z,56.60
2022-07-26T12:35:14.055Z,56.10
2022-07-26T12:37:46.790Z,55.20
2022-07-26T12:40:19.160Z,56.20
2022-07-26T12:42:49.712Z,56.20
2022-07-26T12:45:21.691Z,56.90
2022-07-26T12:47:50.880Z,56.90
2022-07-26T12:50:19.673Z,57.70
2022-07-26T12:52:46.705Z,57.50
2022-07-26T12:55:16.600Z,56.30
2022-07-26T12:57:45.978Z,56.00
2022-07-26T13:00:16.771Z,56.20
2022-07-26T13:02:44.250Z,54.90
2022-07-26T13:05:11.664Z,55.50
2022-07-26T13:07:38.980Z,50.40
2022-07-26T13:10:31.760Z,51.70
2022-07-26T13:12:55.383Z,52.30
2022-07-26T13:15:22.340Z,51.20
2022-07-26T13:17:51.537Z,53.10
2022-07-26T13:20:18.418Z,53.30
2022-07-26T13:22:45.174Z,57.60
2022-07-26T13:25:11.945Z,56.50
2022-07-26T13:27:44.254Z,56.50
2022-07-26T13:30:12.304Z,54.90
2022-07-26T13:32:39.093Z,55.20
2022-07-26T13:35:06.546Z,52.10
2022-07-26T13:37:33.290Z,52.70
2022-07-26T13:40:00.421Z,53.60
2022-07-26T13:42:28.027Z,53.70
2022-07-26T13:44:54.808Z,50.80
2022-07-26T13:47:21.772Z,52.00
2022-07-26T13:49:48.680Z,52.80
2022-07-26T13:52:16.927Z,52.30
2022-07-26T13:54:44.112Z,50.60
2022-07-26T13:57:11.112Z,51.60
2022-07-26T13:59:37.913Z,50.70
2022-07-26T14:02:05.196Z,51.60
2022-07-26T14:04:32.144Z,53.00
2022-07-26T14:06:58.965Z,54.70
2022-07-26T14:09:25.808Z,52.20
2022-07-26T14:11:52.616Z,52.70
2022-07-26T14:14:19.392Z,55.60
2022-07-26T14:16:48.110Z,54.00
2022-07-26T14:19:16.914Z,54.20
2022-07-26T14:21:48.851Z,54.30
2022-07-26T14:24:27.239Z,54.60
2022-07-26T14:26:58.443Z,57.20
2022-07-26T14:29:26.154Z,57.40
2022-07-26T14:31:53.388Z,54.80
2022-07-26T14:34:20.258Z,54.90
2022-07-26T14:36:47.129Z,56.20
2022-07-26T14:39:13.949Z,55.90
2022-07-26T14:41:40.911Z,57.30
2022-07-26T14:44:08.029Z,58.10
2022-07-26T14:46:36.160Z,58.90
2022-07-26T14:49:02.964Z,58.80
2022-07-26T14:51:29.997Z,59.70
2022-07-26T14:53:56.826Z,59.60
2022-07-26T14:56:23.632Z,57.80
2022-07-26T14:58:50.551Z,56.60
2022-07-26T15:01:17.647Z,58.00
2022-07-26T15:03:44.590Z,56.80
2022-07-26T15:06:11.370Z,58.30
2022-07-26T15:08:38.206Z,57.70
2022-07-26T15:11:05.948Z,57.10
2022-07-26T15:13:33.719Z,55.30
2022-07-26T15:16:01.659Z,55.80
2022-07-26T15:18:28.842Z,56.70
2022-07-26T15:20:57.875Z,55.60
2022-07-26T15:23:26.388Z,56.00
2022-07-26T15:25:53.597Z,57.40
2022-07-26T15:28:20.540Z,55.50
2022-07-26T15:30:47.523Z,57.30
2022-07-26T15:33:15.436Z,58.10
2022-07-26T15:35:42.409Z,57.40
2022-07-26T15:38:09.270Z,58.10
2022-07-26T15:40:36.055Z,59.50
2022-07-26T15:43:08.667Z,59.10
2022-07-26T15:45:40.879Z,59.30
2022-07-26T15:48:17.082Z,60.50
2022-07-26T15:50:49.508Z,61.50
2022-07-26T15:53:16.717Z,60.00
2022-07-26T15:55:43.528Z,59.50
2022-07-26T15:58:13.107Z,58.90
2022-07-26T16:00:40.108Z,59.60
2022-07-26T16:03:06.975Z,59.40
2022-07-26T16:05:34.623Z,60.10
2022-07-26T16:08:01.572Z,59.80
2022-07-26T16:10:28.361Z,59.50
2022-07-26T16:12:55.166Z,59.30
2022-07-26T16:15:21.935Z,58.50
2022-07-26T16:17:48.748Z,59.30
2022-07-26T16:20:19.297Z,59.10
2022-07-26T16:22:47.673Z,57.70
2022-07-26T16:25:15.979Z,58.40
2022-07-26T16:27:43.945Z,58.60
2022-07-26T16:30:14.829Z,59.70
2022-07-26T16:32:42.203Z,60.30
2022-07-26T16:35:09.484Z,60.30
2022-07-26T16:37:37.440Z,60.40
2022-07-26T16:40:06.657Z,61.20
2022-07-26T16:42:34.862Z,60.00
2022-07-26T16:45:15.206Z,60.50
2022-07-26T16:47:44.324Z,59.80
2022-07-26T16:50:11.143Z,60.40
2022-07-26T16:52:38.150Z,61.20
2022-07-26T16:55:07.605Z,63.30
2022-07-26T16:57:34.454Z,61.90
2022-07-26T17:00:01.785Z,61.60
2022-07-26T17:02:28.653Z,62.40
2022-07-26T17:04:57.206Z,62.50
2022-07-26T17:07:26.264Z,63.20
2022-07-26T17:09:55.238Z,62.80
2022-07-26T17:12:23.563Z,62.70
2022-07-26T17:14:50.991Z,64.00
2022-07-26T17:17:18.832Z,64.30
2022-07-26T17:19:45.619Z,63.30
2022-07-26T17:22:12.753Z,63.20
2022-07-26T17:24:39.724Z,65.00
2022-07-26T17:27:06.533Z,65.00
2022-07-26T17:29:33.372Z,65.00
2022-07-26T17:32:00.156Z,64.40
2022-07-26T17:34:27.070Z,64.40
2022-07-26T17:37:02.688Z,65.20
2022-07-26T17:39:47.547Z,64.20
2022-07-26T17:42:21.074Z,65.00
2022-07-26T17:44:50.342Z,64.60
2022-07-26T17:47:28.211Z,65.00
2022-07-26T17:52:54.246Z,66.20
2022-07-26T17:55:22.732Z,66.10
2022-07-26T17:57:50.448Z,66.10
2022-07-26T18:00:22.300Z,66.80
2022-07-26T18:02:49.747Z,65.90
2022-07-26T18:05:18.500Z,66.20
2022-07-26T18:07:45.957Z,66.30
2022-07-26T18:10:14.322Z,67.00
2022-07-26T18:12:41.616Z,68.80
2022-07-26T18:15:09.433Z,68.50
2022-07-26T18:17:36.992Z,69.20
2022-07-26T18:20:06.212Z,70.60
2022-07-26T18:22:33.533Z,70.70
2022-07-26T18:25:00.498Z,69.90
2022-07-26T18:27:28.257Z,70.10
2022-07-26T18:29:56.291Z,71.00
2022-07-26T18:32:23.888Z,71.40
2022-07-26T18:34:52.597Z,72.20
2022-07-26T18:37:20.470Z,72.70
2022-07-26T18:39:47.739Z,73.30
2022-07-26T18:42:14.641Z,73.70
2022-07-26T18:44:41.725Z,74.00
2022-07-26T18:47:08.586Z,74.40
2022-07-26T18:49:35.845Z,74.60
2022-07-26T18:52:08.400Z,75.40
2022-07-26T18:54:36.514Z,75.80
2022-07-26T18:57:03.999Z,76.40
2022-07-26T18:59:31.119Z,76.60
2022-07-26T19:01:59.918Z,76.70
2022-07-26T19:04:27.126Z,77.00
2022-07-26T19:06:54.032Z,77.60
2022-07-26T19:09:20.954Z,77.90
2022-07-26T19:11:48.769Z,78.30
2022-07-26T19:14:15.557Z,78.80
2022-07-26T19:16:42.401Z,79.00
2022-07-26T19:19:11.055Z,79.40
2022-07-26T19:21:40.046Z,79.80
2022-07-26T19:24:07.017Z,80.50
2022-07-26T19:26:34.483Z,80.50
2022-07-26T19:29:01.354Z,81.20
2022-07-26T19:31:28.243Z,81.20
2022-07-26T19:33:55.303Z,81.40
2022-07-26T19:36:25.758Z,81.80
2022-07-26T19:38:53.633Z,81.90
2022-07-26T19:41:20.811Z,82.40
2022-07-26T19:43:47.802Z,82.80
2022-07-26T19:46:14.732Z,83.30
2022-07-26T19:48:41.627Z,83.80
2022-07-26T19:51:08.529Z,84.30
2022-07-26T19:53:35.337Z,84.70
2022-07-26T19:56:02.254Z,85.00
2022-07-26T19:58:30.795Z,85.40
2022-07-26T20:00:57.585Z,85.90
2022-07-26T20:03:24.977Z,86.10
2022-07-26T20:05:53.393Z,86.30
2022-07-26T20:08:20.195Z,86.70
2022-07-26T20:10:47.005Z,86.90
2022-07-26T20:13:13.883Z,87.20
2022-07-26T20:15:40.648Z,87.30
2022-07-26T20:18:07.512Z,87.40
2022-07-26T20:20:34.331Z,87.80
2022-07-26T20:23:02.226Z,88.10
2022-07-26T20:25:29.179Z,88.30
2022-07-26T20:27:56.030Z,88.70
2022-07-26T20:30:22.827Z,89.00
2022-07-26T20:32:49.934Z,89.30
2022-07-26T20:35:16.840Z,89.40
2022-07-26T20:37:43.670Z,90.10
2022-07-26T20:40:12.407Z,90.00
2022-07-26T20:42:44.236Z,90.20
2022-07-26T20:45:12.886Z,90.30
2022-07-26T20:47:40.561Z,90.40
2022-07-26T20:50:12.377Z,90.30
2022-07-26T20:52:40.238Z,90.30
2022-07-26T20:55:08.293Z,90.60
2022-07-26T20:57:35.553Z,90.90
2022-07-26T21:00:05.871Z,90.90
2022-07-26T21:02:32.819Z,91.10
2022-07-26T21:04:59.815Z,91.30
2022-07-26T21:07:58.513Z,91.50
2022-07-26T21:10:14.865Z,91.90
2022-07-26T21:12:42.773Z,92.10
2022-07-26T21:15:10.166Z,92.20
2022-07-26T21:17:37.230Z,92.20
2022-07-26T21:20:05.338Z,92.20
2022-07-26T21:22:32.209Z,92.30
2022-07-26T21:24:59.136Z,92.50
2022-07-26T21:27:25.983Z,92.70
2022-07-26T21:29:52.763Z,92.70
2022-07-26T21:32:19.650Z,92.80
2022-07-26T21:34:46.483Z,92.70
2022-07-26T21:37:13.417Z,92.70
2022-07-26T21:39:40.205Z,92.90
2022-07-26T21:42:07.063Z,93.10
2022-07-26T21:44:33.896Z,93.30
2022-07-26T21:47:00.702Z,93.40
2022-07-26T21:49:28.791Z,93.60
2022-07-26T21:51:55.609Z,93.90
2022-07-26T21:54:22.525Z,93.90
2022-07-26T21:56:49.551Z,94.20
2022-07-26T21:59:16.765Z,94.10
2022-07-26T22:01:43.581Z,94.30
2022-07-26T22:04:10.637Z,94.30
2022-07-26T22:06:37.965Z,94.40
2022-07-26T22:09:05.260Z,94.40
2022-07-26T22:11:32.089Z,94.60
2022-07-26T22:14:00.291Z,94.80
2022-07-26T22:16:27.833Z,95.60
2022-07-26T22:18:55.023Z,96.00
2022-07-26T22:21:22.872Z,96.20
2022-07-26T22:23:49.647Z,96.50
2022-07-26T22:26:16.573Z,97.20
2022-07-26T22:28:43.507Z,97.70
2022-07-26T22:31:10.461Z,98.00
2022-07-26T22:33:37.328Z,98.20
2022-07-26T22:36:04.606Z,98.60
2022-07-26T22:38:31.693Z,98.70
2022-07-26T22:40:59.837Z,99.60
2022-07-26T22:43:26.792Z,99.90
2022-07-26T22:45:54.692Z,99.90
2022-07-26T22:48:21.566Z,99.90
2022-07-26T22:50:48.391Z,99.90
2022-07-26T22:53:16.320Z,99.90
2022-07-26T22:55:43.085Z,99.90
2022-07-26T22:58:10.892Z,99.90
2022-07-26T23:00:38.005Z,99.90
2022-07-26T23:03:05.496Z,99.90
2022-07-26T23:05:47.725Z,99.90
2022-07-26T23:11:06.045Z,99.90
2022-07-26T23:13:33.453Z,99.90
2022-07-26T23:16:01.657Z,99.90
2022-07-26T23:18:30.647Z,99.90
2022-07-26T23:20:57.792Z,99.90
2022-07-26T23:23:29.098Z,99.90
2022-07-26T23:25:58.323Z,99.90
2022-07-26T23:28:37.040Z,99.90
2022-07-26T23:31:11.145Z,99.90
2022-07-26T23:33:53.197Z,99.90
2022-07-26T23:36:26.740Z,99.90
2022-07-26T23:38:58.421Z,99.90
2022-07-26T23:41:26.480Z,99.90
2022-07-26T23:43:54.290Z,99.90
2022-07-26T23:46:21.965Z,99.90
2022-07-26T23:48:49.575Z,99.90
2022-07-26T23:51:16.525Z,99.90
2022-07-26T23:53:43.445Z,99.90
2022-07-26T23:56:10.233Z,99.90
2022-07-26T23:58:37.575Z,99.90
